createdAt,value
2016-05-08T00:00:56.854Z,1007.65
2016-05-08T00:01:56.809Z,1007.71
2016-05-08T00:02:56.765Z,1007.68
2016-05-08T00:03:56.721Z,1007.73
2016-05-08T00:04:56.677Z,1007.74
2016-05-08T00:05:53.617Z,1007.74
2016-05-08T00:06:53.573Z,1007.77
2016-05-08T00:07:53.576Z,1007.75
2016-05-08T00:08:53.484Z,1007.77
2016-05-08T00:09:53.440Z,1007.73
2016-05-08T00:10:53.396Z,1007.79
2016-05-08T00:11:53.367Z,1007.8
2016-05-08T00:12:53.307Z,1007.81
2016-05-08T00:13:53.279Z,1007.83
2016-05-08T00:14:56.219Z,1007.8
2016-05-08T00:15:53.175Z,1007.78
2016-05-08T00:16:53.131Z,1007.78
2016-05-08T00:17:53.087Z,1007.81
2016-05-08T00:18:53.042Z,1007.81
2016-05-08T00:19:52.998Z,1007.84
2016-05-08T00:20:52.953Z,1007.81
2016-05-08T00:21:52.910Z,1007.85
2016-05-08T00:22:52.867Z,1007.83
2016-05-08T00:23:55.822Z,1007.85
2016-05-08T00:24:52.785Z,1007.85
2016-05-08T00:25:52.740Z,1007.85
2016-05-08T00:26:52.696Z,1007.89
2016-05-08T00:27:52.636Z,1007.87
2016-05-08T00:28:52.608Z,1007.92
2016-05-08T00:29:52.548Z,1007.88
2016-05-08T00:30:52.504Z,1007.89
2016-05-08T00:31:52.476Z,1007.89
2016-05-08T00:32:52.415Z,1007.86
2016-05-08T00:33:52.386Z,1007.88
2016-05-08T00:34:52.326Z,1007.83
2016-05-08T00:35:52.298Z,1007.81
2016-05-08T00:36:55.254Z,1007.83
2016-05-08T00:37:55.210Z,1007.83
2016-05-08T00:38:55.150Z,1007.85
2016-05-08T00:39:52.106Z,1007.86
2016-05-08T00:40:52.061Z,1007.85
2016-05-08T00:41:52.017Z,1007.85
2016-05-08T00:42:51.973Z,1007.85
2016-05-08T00:43:51.930Z,1007.85
2016-05-08T00:44:52.088Z,1007.85
2016-05-08T00:45:51.841Z,1007.85
2016-05-08T00:46:52.000Z,1007.85
2016-05-08T00:47:51.753Z,1007.85
2016-05-08T00:48:51.708Z,1007.89
2016-05-08T00:49:54.680Z,1007.88
2016-05-08T00:50:51.651Z,1007.92
2016-05-08T00:51:51.576Z,1007.9
2016-05-08T00:52:54.546Z,1007.9
2016-05-08T00:53:51.488Z,1007.9
2016-05-08T00:54:51.662Z,1007.87
2016-05-08T00:55:54.399Z,1007.9
2016-05-08T00:56:51.354Z,1007.89
2016-05-08T00:57:51.357Z,1007.87
2016-05-08T00:58:51.265Z,1007.9
2016-05-08T00:59:51.207Z,1007.85
2016-05-08T01:00:51.179Z,1007.86
2016-05-08T01:01:51.118Z,1007.85
2016-05-08T01:02:51.073Z,1007.84
2016-05-08T01:03:51.030Z,1007.88
2016-05-08T01:04:51.001Z,1007.85
2016-05-08T01:05:53.957Z,1007.88
2016-05-08T01:06:50.913Z,1007.86
2016-05-08T01:07:53.869Z,1007.84
2016-05-08T01:08:51.011Z,1007.86
2016-05-08T01:09:53.764Z,1007.87
2016-05-08T01:10:53.736Z,1007.86
2016-05-08T01:11:50.676Z,1007.87
2016-05-08T01:12:53.648Z,1007.91
2016-05-08T01:13:53.588Z,1007.89
2016-05-08T01:14:50.544Z,1007.89
2016-05-08T01:15:50.500Z,1007.89
2016-05-08T01:16:50.456Z,1007.87
2016-05-08T01:17:50.411Z,1007.86
2016-05-08T01:18:50.367Z,1007.88
2016-05-08T01:19:50.322Z,1007.88
2016-05-08T01:20:50.279Z,1007.86
2016-05-08T01:21:50.235Z,1007.87
2016-05-08T01:22:50.191Z,1007.87
2016-05-08T01:23:53.146Z,1007.88
2016-05-08T01:24:50.103Z,1007.88
2016-05-08T01:25:50.058Z,1007.9
2016-05-08T01:26:49.999Z,1007.94
2016-05-08T01:27:53.048Z,1007.9
2016-05-08T01:28:49.911Z,1007.91
2016-05-08T01:29:49.866Z,1007.89
2016-05-08T01:30:49.822Z,1007.93
2016-05-08T01:31:49.777Z,1007.92
2016-05-08T01:32:49.734Z,1007.88
2016-05-08T01:33:49.690Z,1007.91
2016-05-08T01:34:49.646Z,1007.92
2016-05-08T01:35:49.601Z,1007.92
2016-05-08T01:36:49.760Z,1007.93
2016-05-08T01:37:49.512Z,1007.91
2016-05-08T01:38:52.469Z,1007.96
2016-05-08T01:39:49.424Z,1007.91
2016-05-08T01:40:49.380Z,1007.9
2016-05-08T01:41:49.539Z,1007.89
2016-05-08T01:42:49.354Z,1007.88
2016-05-08T01:43:52.248Z,1007.88
2016-05-08T01:44:49.204Z,1007.89
2016-05-08T01:45:49.159Z,1007.85
2016-05-08T01:46:49.100Z,1007.85
2016-05-08T01:47:49.056Z,1007.85
2016-05-08T01:48:49.011Z,1007.82
2016-05-08T01:49:48.983Z,1007.84
2016-05-08T01:50:57.954Z,1007.81
2016-05-08T01:51:48.878Z,1007.81
2016-05-08T01:52:51.850Z,1007.81
2016-05-08T01:53:48.790Z,1007.79
2016-05-08T01:54:51.747Z,1007.77
2016-05-08T01:55:51.717Z,1007.81
2016-05-08T01:56:51.673Z,1007.77
2016-05-08T01:57:51.972Z,1007.77
2016-05-08T01:58:48.569Z,1007.79
2016-05-08T01:59:48.525Z,1007.76
2016-05-08T02:00:48.481Z,1007.78
2016-05-08T02:01:48.437Z,1007.8
2016-05-08T02:02:48.393Z,1007.79
2016-05-08T02:03:48.348Z,1007.8
2016-05-08T02:04:48.288Z,1007.8
2016-05-08T02:05:48.260Z,1007.81
2016-05-08T02:06:48.200Z,1007.79
2016-05-08T02:07:51.172Z,1007.81
2016-05-08T02:08:48.127Z,1007.82
2016-05-08T02:09:48.067Z,1007.83
2016-05-08T02:10:48.024Z,1007.79
2016-05-08T02:11:47.980Z,1007.81
2016-05-08T02:12:47.935Z,1007.8
2016-05-08T02:13:50.907Z,1007.83
2016-05-08T02:14:47.846Z,1007.82
2016-05-08T02:15:47.803Z,1007.83
2016-05-08T02:16:47.758Z,1007.8
2016-05-08T02:17:47.715Z,1007.78
2016-05-08T02:18:47.873Z,1007.76
2016-05-08T02:19:47.626Z,1007.77
2016-05-08T02:20:47.566Z,1007.81
2016-05-08T02:21:47.537Z,1007.78
2016-05-08T02:22:50.493Z,1007.81
2016-05-08T02:23:47.450Z,1007.81
2016-05-08T02:24:56.420Z,1007.76
2016-05-08T02:25:50.361Z,1007.8
2016-05-08T02:26:47.316Z,1007.8
2016-05-08T02:27:47.319Z,1007.79
2016-05-08T02:28:47.213Z,1007.79
2016-05-08T02:29:47.169Z,1007.76
2016-05-08T02:30:47.124Z,1007.75
2016-05-08T02:31:47.080Z,1007.77
2016-05-08T02:32:47.239Z,1007.79
2016-05-08T02:33:46.991Z,1007.76
2016-05-08T02:34:49.963Z,1007.79
2016-05-08T02:35:46.888Z,1007.79
2016-05-08T02:36:46.859Z,1007.79
2016-05-08T02:37:46.799Z,1007.77
2016-05-08T02:38:49.771Z,1007.74
2016-05-08T02:39:46.710Z,1007.81
2016-05-08T02:40:46.666Z,1007.84
2016-05-08T02:41:46.656Z,1007.81
2016-05-08T02:42:46.658Z,1007.84
2016-05-08T02:43:47.067Z,1007.82
2016-05-08T02:44:46.665Z,1007.8
2016-05-08T02:45:46.668Z,1007.79
2016-05-08T02:46:46.651Z,1007.78
2016-05-08T02:47:46.625Z,1007.77
2016-05-08T02:48:46.597Z,1007.79
2016-05-08T02:49:46.571Z,1007.8
2016-05-08T02:50:46.528Z,1007.78
2016-05-08T02:51:46.493Z,1007.8
2016-05-08T02:52:46.471Z,1007.83
2016-05-08T02:53:49.434Z,1007.81
2016-05-08T02:54:46.380Z,1007.86
2016-05-08T02:55:46.341Z,1007.86
2016-05-08T02:56:46.332Z,1007.88
2016-05-08T02:57:46.290Z,1007.86
2016-05-08T02:58:46.248Z,1007.88
2016-05-08T02:59:49.191Z,1007.87
2016-05-08T03:00:46.133Z,1007.9
2016-05-08T03:01:46.090Z,1007.88
2016-05-08T03:02:49.047Z,1007.88
2016-05-08T03:03:45.987Z,1007.89
2016-05-08T03:04:48.960Z,1007.9
2016-05-08T03:05:45.917Z,1007.93
2016-05-08T03:06:45.857Z,1007.88
2016-05-08T03:07:45.814Z,1007.9
2016-05-08T03:08:45.770Z,1007.89
2016-05-08T03:09:45.726Z,1007.87
2016-05-08T03:10:45.682Z,1007.91
2016-05-08T03:11:45.841Z,1007.86
2016-05-08T03:12:48.594Z,1007.87
2016-05-08T03:13:48.565Z,1007.87
2016-05-08T03:14:48.505Z,1007.87
2016-05-08T03:15:45.461Z,1007.85
2016-05-08T03:16:48.418Z,1007.86
2016-05-08T03:17:45.357Z,1007.85
2016-05-08T03:18:45.329Z,1007.88
2016-05-08T03:19:45.268Z,1007.89
2016-05-08T03:20:45.226Z,1007.88
2016-05-08T03:21:45.181Z,1007.87
2016-05-08T03:22:45.137Z,1007.84
2016-05-08T03:23:45.092Z,1007.88
2016-05-08T03:24:48.048Z,1007.91
2016-05-08T03:25:48.019Z,1007.91
2016-05-08T03:26:47.960Z,1007.86
2016-05-08T03:27:44.900Z,1007.89
2016-05-08T03:28:47.872Z,1007.91
2016-05-08T03:29:47.827Z,1007.94
2016-05-08T03:30:47.784Z,1007.88
2016-05-08T03:31:47.738Z,1007.92
2016-05-08T03:32:44.679Z,1007.87
2016-05-08T03:33:44.635Z,1007.94
2016-05-08T03:34:44.590Z,1007.89
2016-05-08T03:35:44.547Z,1007.93
2016-05-08T03:36:44.705Z,1007.94
2016-05-08T03:37:44.458Z,1007.99
2016-05-08T03:38:44.413Z,1007.94
2016-05-08T03:39:47.369Z,1007.94
2016-05-08T03:40:44.310Z,1007.96
2016-05-08T03:41:44.281Z,1007.94
2016-05-08T03:42:44.238Z,1007.97
2016-05-08T03:43:44.193Z,1007.99
2016-05-08T03:44:44.133Z,1007.97
2016-05-08T03:45:44.088Z,1007.98
2016-05-08T03:46:44.045Z,1008
2016-05-08T03:47:44.001Z,1007.97
2016-05-08T03:48:46.972Z,1007.96
2016-05-08T03:49:46.912Z,1007.98
2016-05-08T03:50:43.868Z,1007.97
2016-05-08T03:51:43.854Z,1007.95
2016-05-08T03:52:43.779Z,1007.95
2016-05-08T03:53:43.735Z,1007.97
2016-05-08T03:54:43.676Z,1007.99
2016-05-08T03:55:46.647Z,1007.95
2016-05-08T03:56:46.603Z,1007.97
2016-05-08T03:57:43.575Z,1008
2016-05-08T03:58:43.498Z,1007.98
2016-05-08T03:59:43.455Z,1007.99
2016-05-08T04:00:46.411Z,1008.01
2016-05-08T04:01:43.367Z,1008
2016-05-08T04:02:46.322Z,1007.98
2016-05-08T04:03:43.262Z,1008.03
2016-05-08T04:04:43.218Z,1008.02
2016-05-08T04:05:43.174Z,1008.03
2016-05-08T04:06:43.130Z,1008.06
2016-05-08T04:07:43.102Z,1008.02
2016-05-08T04:08:43.041Z,1008.05
2016-05-08T04:09:42.997Z,1008.03
2016-05-08T04:10:42.938Z,1008.08
2016-05-08T04:11:42.909Z,1008.06
2016-05-08T04:12:43.068Z,1008.06
2016-05-08T04:13:45.821Z,1008.06
2016-05-08T04:14:45.776Z,1008.08
2016-05-08T04:15:42.716Z,1008.07
2016-05-08T04:16:45.766Z,1008.04
2016-05-08T04:17:42.629Z,1008.05
2016-05-08T04:18:45.599Z,1008.01
2016-05-08T04:19:42.540Z,1008.04
2016-05-08T04:20:42.496Z,1008.04
2016-05-08T04:21:42.452Z,1008.08
2016-05-08T04:22:42.610Z,1008.08
2016-05-08T04:23:42.362Z,1008.06
2016-05-08T04:24:42.303Z,1008.06
2016-05-08T04:25:42.275Z,1008.06
2016-05-08T04:26:42.215Z,1008.08
2016-05-08T04:27:42.171Z,1008.07
2016-05-08T04:28:42.126Z,1008.1
2016-05-08T04:29:42.097Z,1008.07
2016-05-08T04:30:42.053Z,1008.09
2016-05-08T04:31:41.995Z,1008.11
2016-05-08T04:32:41.934Z,1008.1
2016-05-08T04:33:41.889Z,1008.14
2016-05-08T04:34:41.861Z,1008.11
2016-05-08T04:35:41.801Z,1008.12
2016-05-08T04:36:44.773Z,1008.16
2016-05-08T04:37:44.728Z,1008.17
2016-05-08T04:38:44.685Z,1008.19
2016-05-08T04:39:44.624Z,1008.13
2016-05-08T04:40:50.800Z,1008.17
2016-05-08T04:41:41.536Z,1008.18
2016-05-08T04:42:41.491Z,1008.17
2016-05-08T04:43:41.448Z,1008.19
2016-05-08T04:44:41.389Z,1008.21
2016-05-08T04:45:41.343Z,1008.19
2016-05-08T04:46:41.300Z,1008.23
2016-05-08T04:47:41.255Z,1008.23
2016-05-08T04:48:41.211Z,1008.24
2016-05-08T04:49:41.167Z,1008.23
2016-05-08T04:50:41.124Z,1008.25
2016-05-08T04:51:41.079Z,1008.23
2016-05-08T04:52:41.019Z,1008.25
2016-05-08T04:53:40.990Z,1008.3
2016-05-08T04:54:41.149Z,1008.31
2016-05-08T04:55:40.886Z,1008.28
2016-05-08T04:56:40.843Z,1008.29
2016-05-08T04:57:40.798Z,1008.32
2016-05-08T04:58:40.956Z,1008.33
2016-05-08T04:59:43.725Z,1008.3
2016-05-08T05:00:40.665Z,1008.34
2016-05-08T05:01:43.637Z,1008.36
2016-05-08T05:02:40.578Z,1008.35
2016-05-08T05:03:40.533Z,1008.35
2016-05-08T05:04:40.473Z,1008.33
2016-05-08T05:05:40.632Z,1008.34
2016-05-08T05:06:40.385Z,1008.35
2016-05-08T05:07:40.356Z,1008.37
2016-05-08T05:08:40.500Z,1008.35
2016-05-08T05:09:40.252Z,1008.36
2016-05-08T05:10:40.208Z,1008.41
2016-05-08T05:11:43.164Z,1008.39
2016-05-08T05:12:40.119Z,1008.38
2016-05-08T05:13:40.075Z,1008.36
2016-05-08T05:14:40.016Z,1008.39
2016-05-08T05:15:39.971Z,1008.39
2016-05-08T05:16:39.943Z,1008.4
2016-05-08T05:17:39.883Z,1008.41
2016-05-08T05:18:39.838Z,1008.41
2016-05-08T05:19:39.810Z,1008.42
2016-05-08T05:20:39.751Z,1008.44
2016-05-08T05:21:42.707Z,1008.42
2016-05-08T05:22:39.662Z,1008.42
2016-05-08T05:23:42.618Z,1008.43
2016-05-08T05:24:39.574Z,1008.45
2016-05-08T05:25:39.512Z,1008.46
2016-05-08T05:26:39.483Z,1008.48
2016-05-08T05:27:39.613Z,1008.48
2016-05-08T05:28:39.379Z,1008.46
2016-05-08T05:29:39.334Z,1008.46
2016-05-08T05:30:39.493Z,1008.48
2016-05-08T05:31:39.246Z,1008.46
2016-05-08T05:32:39.203Z,1008.47
2016-05-08T05:33:39.158Z,1008.52
2016-05-08T05:34:39.114Z,1008.5
2016-05-08T05:35:39.054Z,1008.54
2016-05-08T05:36:39.026Z,1008.53
2016-05-08T05:37:38.966Z,1008.48
2016-05-08T05:38:38.921Z,1008.51
2016-05-08T05:39:38.877Z,1008.53
2016-05-08T05:40:38.833Z,1008.52
2016-05-08T05:41:38.789Z,1008.56
2016-05-08T05:42:38.745Z,1008.54
2016-05-08T05:43:38.700Z,1008.58
2016-05-08T05:44:38.655Z,1008.52
2016-05-08T05:45:38.612Z,1008.53
2016-05-08T05:46:38.569Z,1008.54
2016-05-08T05:47:41.605Z,1008.59
2016-05-08T05:48:38.464Z,1008.57
2016-05-08T05:49:38.435Z,1008.54
2016-05-08T05:50:38.376Z,1008.51
2016-05-08T05:51:41.350Z,1008.55
2016-05-08T05:52:38.288Z,1008.54
2016-05-08T05:53:41.262Z,1008.52
2016-05-08T05:54:38.199Z,1008.5
2016-05-08T05:55:38.154Z,1008.53
2016-05-08T05:56:38.110Z,1008.51
2016-05-08T05:57:38.378Z,1008.52
2016-05-08T05:58:38.022Z,1008.51
2016-05-08T05:59:37.978Z,1008.5
2016-05-08T06:00:37.934Z,1008.56
2016-05-08T06:01:37.889Z,1008.54
2016-05-08T06:02:37.829Z,1008.56
2016-05-08T06:03:37.786Z,1008.58
2016-05-08T06:04:37.757Z,1008.58
2016-05-08T06:05:37.698Z,1008.64
2016-05-08T06:06:37.653Z,1008.68
2016-05-08T06:07:37.608Z,1008.66
2016-05-08T06:08:37.564Z,1008.65
2016-05-08T06:09:37.520Z,1008.67
2016-05-08T06:10:37.491Z,1008.67
2016-05-08T06:11:37.433Z,1008.69
2016-05-08T06:12:40.591Z,1008.75
2016-05-08T06:13:40.344Z,1008.7
2016-05-08T06:14:37.300Z,1008.66
2016-05-08T06:15:37.255Z,1008.75
2016-05-08T06:16:40.211Z,1008.76
2016-05-08T06:17:37.166Z,1008.74
2016-05-08T06:18:40.122Z,1008.71
2016-05-08T06:19:37.282Z,1008.71
2016-05-08T06:20:40.035Z,1008.75
2016-05-08T06:21:36.974Z,1008.81
2016-05-08T06:22:36.930Z,1008.76
2016-05-08T06:23:36.885Z,1008.72
2016-05-08T06:24:36.842Z,1008.71
2016-05-08T06:25:36.798Z,1008.74
2016-05-08T06:26:36.753Z,1008.7
2016-05-08T06:27:36.710Z,1008.74
2016-05-08T06:28:36.665Z,1008.73
2016-05-08T06:29:36.621Z,1008.7
2016-05-08T06:30:36.576Z,1008.75
2016-05-08T06:31:36.532Z,1008.74
2016-05-08T06:32:36.489Z,1008.77
2016-05-08T06:33:45.462Z,1008.76
2016-05-08T06:34:36.603Z,1008.72
2016-05-08T06:35:36.356Z,1008.77
2016-05-08T06:36:36.312Z,1008.8
2016-05-08T06:37:36.470Z,1008.83
2016-05-08T06:38:36.223Z,1008.78
2016-05-08T06:39:36.163Z,1008.84
2016-05-08T06:40:36.119Z,1008.83
2016-05-08T06:41:36.075Z,1008.86
2016-05-08T06:42:36.047Z,1008.88
2016-05-08T06:43:36.003Z,1008.86
2016-05-08T06:44:35.958Z,1008.87
2016-05-08T06:45:35.914Z,1008.81
2016-05-08T06:46:35.855Z,1008.81
2016-05-08T06:47:35.810Z,1008.9
2016-05-08T06:48:35.766Z,1008.82
2016-05-08T06:49:38.738Z,1008.86
2016-05-08T06:50:35.677Z,1008.85
2016-05-08T06:51:35.633Z,1008.85
2016-05-08T06:52:35.589Z,1008.86
2016-05-08T06:53:35.546Z,1008.86
2016-05-08T06:54:35.501Z,1008.92
2016-05-08T06:55:35.457Z,1008.93
2016-05-08T06:56:35.412Z,1008.93
2016-05-08T06:57:35.368Z,1008.94
2016-05-08T06:58:35.339Z,1008.93
2016-05-08T06:59:35.279Z,1008.87
2016-05-08T07:00:38.251Z,1008.9
2016-05-08T07:01:38.192Z,1008.92
2016-05-08T07:02:35.148Z,1008.93
2016-05-08T07:03:38.118Z,1008.92
2016-05-08T07:04:35.075Z,1008.89
2016-05-08T07:05:38.015Z,1008.91
2016-05-08T07:06:38.001Z,1008.9
2016-05-08T07:07:34.926Z,1008.91
2016-05-08T07:08:34.881Z,1008.86
2016-05-08T07:09:34.869Z,1008.89
2016-05-08T07:10:34.794Z,1008.89
2016-05-08T07:11:34.749Z,1008.88
2016-05-08T07:12:34.721Z,1008.9
2016-05-08T07:13:34.661Z,1008.9
2016-05-08T07:14:34.633Z,1008.97
2016-05-08T07:15:34.573Z,1008.95
2016-05-08T07:16:34.528Z,1008.94
2016-05-08T07:17:34.485Z,1008.95
2016-05-08T07:18:34.440Z,1008.97
2016-05-08T07:19:34.396Z,1009.02
2016-05-08T07:20:37.368Z,1009.02
2016-05-08T07:21:37.323Z,1008.95
2016-05-08T07:22:37.280Z,1008.93
2016-05-08T07:23:37.235Z,1008.92
2016-05-08T07:24:37.191Z,1008.94
2016-05-08T07:25:34.132Z,1008.92
2016-05-08T07:26:34.102Z,1009
2016-05-08T07:27:34.277Z,1008.97
2016-05-08T07:28:34.015Z,1009.01
2016-05-08T07:29:33.954Z,1009.01
2016-05-08T07:30:33.909Z,1008.98
2016-05-08T07:31:33.866Z,1008.99
2016-05-08T07:32:33.821Z,1008.98
2016-05-08T07:33:33.778Z,1008.94
2016-05-08T07:34:33.749Z,1008.98
2016-05-08T07:35:33.704Z,1008.95
2016-05-08T07:36:33.661Z,1008.96
2016-05-08T07:37:33.617Z,1008.94
2016-05-08T07:38:33.760Z,1009
2016-05-08T07:39:33.528Z,1009
2016-05-08T07:40:33.467Z,1008.96
2016-05-08T07:41:33.487Z,1009
2016-05-08T07:42:33.395Z,1009.03
2016-05-08T07:43:33.351Z,1009
2016-05-08T07:44:33.307Z,1009.01
2016-05-08T07:45:33.263Z,1008.99
2016-05-08T07:46:33.234Z,1009.03
2016-05-08T07:47:36.191Z,1009.05
2016-05-08T07:48:33.130Z,1009.06
2016-05-08T07:49:33.085Z,1009.09
2016-05-08T07:50:36.057Z,1009.11
2016-05-08T07:51:32.997Z,1009.08
2016-05-08T07:52:32.954Z,1009.06
2016-05-08T07:53:32.910Z,1009.04
2016-05-08T07:54:35.880Z,1009.09
2016-05-08T07:55:35.837Z,1009.08
2016-05-08T07:56:32.793Z,1009.09
2016-05-08T07:57:32.732Z,1009.07
2016-05-08T07:58:35.704Z,1009.07
2016-05-08T07:59:32.660Z,1009.04
2016-05-08T08:00:32.803Z,1009.01
2016-05-08T08:01:35.587Z,1009.04
2016-05-08T08:02:32.527Z,1009.09
2016-05-08T08:03:35.483Z,1009.06
2016-05-08T08:04:35.439Z,1009.09
2016-05-08T08:05:35.395Z,1009.07
2016-05-08T08:06:32.351Z,1009.05
2016-05-08T08:07:32.322Z,1008.99
2016-05-08T08:08:32.262Z,1009.01
2016-05-08T08:09:32.234Z,1008.99
2016-05-08T08:10:32.189Z,1008.98
2016-05-08T08:11:32.145Z,1008.93
2016-05-08T08:12:32.101Z,1009.01
2016-05-08T08:13:32.056Z,1009
2016-05-08T08:14:32.013Z,1009.01
2016-05-08T08:15:31.969Z,1009.05
2016-05-08T08:16:31.925Z,1009.01
2016-05-08T08:17:31.880Z,1009.01
2016-05-08T08:18:31.836Z,1009.05
2016-05-08T08:19:31.823Z,1009.05
2016-05-08T08:20:31.763Z,1009.04
2016-05-08T08:21:31.703Z,1009.01
2016-05-08T08:22:31.863Z,1009.03
2016-05-08T08:23:31.630Z,1009.03
2016-05-08T08:24:31.586Z,1009.03
2016-05-08T08:25:31.527Z,1009.01
2016-05-08T08:26:31.482Z,1009.06
2016-05-08T08:27:31.454Z,1009.01
2016-05-08T08:28:31.410Z,1009.04
2016-05-08T08:29:31.366Z,1009.03
2016-05-08T08:30:31.321Z,1009.09
2016-05-08T08:31:31.277Z,1009.03
2016-05-08T08:32:31.233Z,1009.07
2016-05-08T08:33:31.189Z,1009.05
2016-05-08T08:34:31.145Z,1009.05
2016-05-08T08:35:31.100Z,1009.07
2016-05-08T08:36:31.259Z,1009.05
2016-05-08T08:37:31.028Z,1009.02
2016-05-08T08:38:30.984Z,1009.07
2016-05-08T08:39:33.955Z,1009.07
2016-05-08T08:40:33.911Z,1009.04
2016-05-08T08:41:30.851Z,1009.04
2016-05-08T08:42:30.807Z,1009.03
2016-05-08T08:43:33.778Z,1009.11
2016-05-08T08:44:33.749Z,1009.09
2016-05-08T08:45:30.674Z,1009.07
2016-05-08T08:46:30.645Z,1009.07
2016-05-08T08:47:30.602Z,1009.11
2016-05-08T08:48:33.557Z,1009.07
2016-05-08T08:49:30.513Z,1009.07
2016-05-08T08:50:30.469Z,1009.05
2016-05-08T08:51:33.441Z,1009.06
2016-05-08T08:52:33.396Z,1009.01
2016-05-08T08:53:30.336Z,1009.04
2016-05-08T08:54:30.291Z,1009.06
2016-05-08T08:55:30.451Z,1009.01
2016-05-08T08:56:30.219Z,1008.99
2016-05-08T08:57:33.174Z,1009.02
2016-05-08T08:58:30.178Z,1009
2016-05-08T08:59:30.087Z,1009.01
2016-05-08T09:00:30.043Z,1008.95
2016-05-08T09:01:30.046Z,1009.01
2016-05-08T09:02:29.954Z,1008.96
2016-05-08T09:03:29.957Z,1009.03
2016-05-08T09:04:32.881Z,1008.98
2016-05-08T09:05:32.837Z,1009
2016-05-08T09:06:29.793Z,1009.03
2016-05-08T09:07:32.951Z,1009.05
2016-05-08T09:08:38.737Z,1009.12
2016-05-08T09:09:29.895Z,1009.04
2016-05-08T09:10:32.631Z,1009
2016-05-08T09:11:29.573Z,1009.09
2016-05-08T09:12:32.747Z,1009.01
2016-05-08T09:13:32.515Z,1009.05
2016-05-08T09:14:29.455Z,1009.01
2016-05-08T09:15:32.411Z,1009.06
2016-05-08T09:16:32.383Z,1008.96
2016-05-08T09:17:29.322Z,1009.08
2016-05-08T09:18:32.294Z,1009.02
2016-05-08T09:19:29.233Z,1008.9
2016-05-08T09:20:29.206Z,1008.92
2016-05-08T09:21:29.162Z,1008.87
2016-05-08T09:22:32.117Z,1008.97
2016-05-08T09:23:29.277Z,1008.94
2016-05-08T09:24:32.029Z,1008.92
2016-05-08T09:25:31.985Z,1008.88
2016-05-08T09:26:31.957Z,1008.89
2016-05-08T09:27:28.912Z,1008.87
2016-05-08T09:28:31.868Z,1008.87
2016-05-08T09:29:31.824Z,1008.82
2016-05-08T09:30:31.780Z,1008.82
2016-05-08T09:31:31.735Z,1008.83
2016-05-08T09:32:28.894Z,1008.82
2016-05-08T09:33:31.646Z,1008.85
2016-05-08T09:34:28.807Z,1008.81
2016-05-08T09:35:31.559Z,1008.82
2016-05-08T09:36:28.529Z,1008.81
2016-05-08T09:37:31.689Z,1008.83
2016-05-08T09:38:28.426Z,1008.83
2016-05-08T09:39:28.398Z,1008.84
2016-05-08T09:40:31.353Z,1008.83
2016-05-08T09:41:31.309Z,1008.83
2016-05-08T09:42:28.265Z,1008.85
2016-05-08T09:43:28.220Z,1008.83
2016-05-08T09:44:28.176Z,1008.85
2016-05-08T09:45:28.163Z,1008.83
2016-05-08T09:46:31.103Z,1008.81
2016-05-08T09:47:31.076Z,1008.78
2016-05-08T09:48:28.016Z,1008.82
2016-05-08T09:49:28.003Z,1008.77
2016-05-08T09:50:30.927Z,1008.76
2016-05-08T09:51:30.899Z,1008.75
2016-05-08T09:52:27.839Z,1008.74
2016-05-08T09:53:30.810Z,1008.7
2016-05-08T09:54:27.813Z,1008.73
2016-05-08T09:55:27.721Z,1008.81
2016-05-08T09:56:30.678Z,1008.8
2016-05-08T09:57:30.633Z,1008.75
2016-05-08T09:58:27.589Z,1008.78
2016-05-08T09:59:30.577Z,1008.75
2016-05-08T10:00:30.516Z,1008.74
2016-05-08T10:01:30.472Z,1008.78
2016-05-08T10:02:27.428Z,1008.7
2016-05-08T10:03:27.384Z,1008.73
2016-05-08T10:04:27.340Z,1008.76
2016-05-08T10:05:27.312Z,1008.76
2016-05-08T10:06:27.251Z,1008.81
2016-05-08T10:07:27.410Z,1008.75
2016-05-08T10:08:30.179Z,1008.72
2016-05-08T10:09:30.150Z,1008.72
2016-05-08T10:10:30.106Z,1008.74
2016-05-08T10:11:27.061Z,1008.8
2016-05-08T10:12:27.017Z,1008.78
2016-05-08T10:13:27.177Z,1008.79
2016-05-08T10:14:26.928Z,1008.77
2016-05-08T10:15:26.885Z,1008.81
2016-05-08T10:16:26.841Z,1008.82
2016-05-08T10:17:26.797Z,1008.89
2016-05-08T10:18:26.768Z,1008.82
2016-05-08T10:19:26.724Z,1008.76
2016-05-08T10:20:26.680Z,1008.81
2016-05-08T10:21:26.636Z,1008.75
2016-05-08T10:22:26.591Z,1008.89
2016-05-08T10:23:26.558Z,1008.76
2016-05-08T10:24:26.514Z,1008.86
2016-05-08T10:25:26.470Z,1008.76
2016-05-08T10:26:26.425Z,1008.67
2016-05-08T10:27:26.381Z,1008.71
2016-05-08T10:28:26.352Z,1008.66
2016-05-08T10:29:26.339Z,1008.65
2016-05-08T10:30:26.264Z,1008.67
2016-05-08T10:31:26.220Z,1008.71
2016-05-08T10:32:26.582Z,1008.64
2016-05-08T10:33:26.350Z,1008.63
2016-05-08T10:34:31.557Z,1008.69
2016-05-08T10:35:26.059Z,1008.64
2016-05-08T10:36:26.015Z,1008.61
2016-05-08T10:37:25.970Z,1008.59
2016-05-08T10:38:25.942Z,1008.62
2016-05-08T10:39:25.882Z,1008.65
2016-05-08T10:40:25.853Z,1008.68
2016-05-08T10:41:28.809Z,1008.55
2016-05-08T10:42:25.765Z,1008.57
2016-05-08T10:43:25.721Z,1008.49
2016-05-08T10:44:28.692Z,1008.55
2016-05-08T10:45:25.632Z,1008.53
2016-05-08T10:46:25.604Z,1008.52
2016-05-08T10:47:25.545Z,1008.54
2016-05-08T10:48:25.515Z,1008.46
2016-05-08T10:49:25.472Z,1008.48
2016-05-08T10:50:28.443Z,1008.52
2016-05-08T10:51:28.399Z,1008.6
2016-05-08T10:52:28.355Z,1008.56
2016-05-08T10:53:25.311Z,1008.48
2016-05-08T10:54:25.281Z,1008.48
2016-05-08T10:55:25.222Z,1008.49
2016-05-08T10:56:28.194Z,1008.38
2016-05-08T10:57:28.337Z,1008.52
2016-05-08T10:58:28.324Z,1008.48
2016-05-08T10:59:28.061Z,1008.43
2016-05-08T11:00:28.017Z,1008.43
2016-05-08T11:01:27.988Z,1008.4
2016-05-08T11:02:24.928Z,1008.41
2016-05-08T11:03:27.899Z,1008.38
2016-05-08T11:04:24.840Z,1008.42
2016-05-08T11:05:24.810Z,1008.43
2016-05-08T11:06:24.767Z,1008.44
2016-05-08T11:07:27.724Z,1008.46
2016-05-08T11:08:24.882Z,1008.44
2016-05-08T11:09:24.650Z,1008.33
2016-05-08T11:10:24.606Z,1008.34
2016-05-08T11:11:24.562Z,1008.39
2016-05-08T11:12:24.518Z,1008.38
2016-05-08T11:13:24.473Z,1008.35
2016-05-08T11:14:24.429Z,1008.4
2016-05-08T11:15:24.401Z,1008.37
2016-05-08T11:16:24.357Z,1008.34
2016-05-08T11:17:24.329Z,1008.38
2016-05-08T11:18:24.268Z,1008.33
2016-05-08T11:19:24.224Z,1008.27
2016-05-08T11:20:24.180Z,1008.3
2016-05-08T11:21:24.136Z,1008.27
2016-05-08T11:22:24.310Z,1008.24
2016-05-08T11:23:24.063Z,1008.29
2016-05-08T11:24:24.019Z,1008.25
2016-05-08T11:25:23.975Z,1008.29
2016-05-08T11:26:23.946Z,1008.34
2016-05-08T11:27:23.902Z,1008.37
2016-05-08T11:28:24.248Z,1008.39
2016-05-08T11:29:23.829Z,1008.26
2016-05-08T11:30:23.769Z,1008.31
2016-05-08T11:31:23.724Z,1008.27
2016-05-08T11:32:26.697Z,1008.17
2016-05-08T11:33:26.653Z,1008.08
2016-05-08T11:34:26.624Z,1008.2
2016-05-08T11:35:23.564Z,1008.13
2016-05-08T11:36:26.551Z,1008.14
2016-05-08T11:37:23.491Z,1008.26
2016-05-08T11:38:23.447Z,1008.23
2016-05-08T11:39:23.402Z,1008.25
2016-05-08T11:40:23.359Z,1008.25
2016-05-08T11:41:23.330Z,1008.25
2016-05-08T11:42:26.285Z,1008.21
2016-05-08T11:43:23.242Z,1008.18
2016-05-08T11:44:26.229Z,1008.21
2016-05-08T11:45:26.168Z,1008.21
2016-05-08T11:46:26.125Z,1008.18
2016-05-08T11:47:23.080Z,1008.16
2016-05-08T11:48:23.069Z,1008.08
2016-05-08T11:49:23.067Z,1008.16
2016-05-08T11:50:26.080Z,1008.11
2016-05-08T11:51:23.078Z,1008.12
2016-05-08T11:52:23.075Z,1008.13
2016-05-08T11:53:23.052Z,1008.13
2016-05-08T11:54:23.023Z,1008.07
2016-05-08T11:55:22.993Z,1008.1
2016-05-08T11:56:22.980Z,1008.04
2016-05-08T11:57:23.153Z,1008.01
2016-05-08T11:58:23.117Z,1008.02
2016-05-08T11:59:23.079Z,1008.05
2016-05-08T12:00:22.852Z,1008.08
2016-05-08T12:01:22.798Z,1008
2016-05-08T12:02:22.774Z,1008.08
2016-05-08T12:03:22.734Z,1007.98
2016-05-08T12:04:22.691Z,1007.94
2016-05-08T12:05:25.664Z,1007.98
2016-05-08T12:06:25.637Z,1007.99
2016-05-08T12:07:22.783Z,1007.94
2016-05-08T12:08:25.755Z,1007.92